Porthos — FM2710 — position and weather

sailwx.info

Track history (hours):
 
Tides and Currents Weather Stations Pressure Air Temp Water Temp Dewpoint Dewpoint Depression Visibility Wind Speed Wind Dir Waves Ship Positions

Porthos

Last reported at 2016-Feb-11 08:33 UTC. Time now 2016-Feb-11 08:45 UTC.
Position N 51°47' E 004°45'.

Length 39 m; draft 3 m.

Type: Ship (hazmat cat A). MMSI: 226002650.

Date/timePositionNaut miles runAvg speedWind from/ knotsBaromVisibWave heightAir tempDewpointWater temp
2016-Feb-11 08:33N 51°47' E 004°45'7 6.6
2016-Feb-11 07:33N 51°43' E 004°37'7 7.2
2016-Feb-11 06:33N 51°42' E 004°26'5 4.8
2016-Feb-11 05:33N 51°39' E 004°19'14 0.9
2016-Feb-10 14:27N 51°33' E 003°59'5 4.8
2016-Feb-10 13:19N 51°27' E 004°01'6 8.2
2016-Feb-10 12:33N 51°22' E 003°55'5 4.6
2016-Feb-10 11:33N 51°20' E 003°49'0 0.3
2016-Feb-10 10:33N 51°19' E 003°49'0 0.0
2016-Feb-10 09:33N 51°19' E 003°49'0 0.0
2016-Feb-10 08:27N 51°19' E 003°49'1 1.1
2016-Feb-10 07:33N 51°18' E 003°50'7 7.5
2016-Feb-10 06:33N 51°11' E 003°48'6 6.5
2016-Feb-10 05:34N 51°06' E 003°42'2 1.6
2016-Feb-10 04:31N 51°05' E 003°39'0 0.0
2016-Feb-10 03:31N 51°05' E 003°39'0 0.0
2016-Feb-10 02:31N 51°05' E 003°39'0 0.0
2016-Feb-10 01:31N 51°05' E 003°39'0 0.0
2016-Feb-10 00:31N 51°05' E 003°39'0 0.0
2016-Feb-09 23:31N 51°05' E 003°39'0 0.0
2016-Feb-09 22:22N 51°05' E 003°39'0 0.0
2016-Feb-09 21:28N 51°05' E 003°39'0 0.0
2016-Feb-09 20:28N 51°05' E 003°39'0 0.0
2016-Feb-09 19:28N 51°05' E 003°39'0 0.0
2016-Feb-09 18:31N 51°05' E 003°39'0 0.0
2016-Feb-09 17:25N 51°05' E 003°39'0 0.0
2016-Feb-09 16:28N 51°05' E 003°39'0 0.0
2016-Feb-09 15:28N 51°05' E 003°39'0 0.1
2016-Feb-09 14:28N 51°05' E 003°39'0 0.0
2016-Feb-09 13:19N 51°05' E 003°39'0 0.0
2016-Feb-09 12:33N 51°05' E 003°39'5 4.6
2016-Feb-09 11:33N 51°03' E 003°33'8 7.6
2016-Feb-09 10:33N 50°56' E 003°27'5 5.5
2016-Feb-09 09:33N 50°53' E 003°20'6 6.3
2016-Feb-09 08:33N 50°48' E 003°13'  
Track history (hours):
 
Tides and Currents Weather Stations Pressure Air Temp Water Temp Dewpoint Dewpoint Depression Visibility Wind Speed Wind Dir Waves Ship Positions

Porthos

Last reported at 2016-Feb-11 08:33 UTC. Time now 2016-Feb-11 08:45 UTC.
Position N 51°47' E 004°45'.

Length 39 m; draft 3 m.

Type: Ship (hazmat cat A). MMSI: 226002650.

Date/timePositionNaut miles runAvg speedWind from/ knotsBaromVisibWave heightAir tempDewpointWater temp
2016-Feb-11 08:33N 51°47' E 004°45'7 6.6
2016-Feb-11 07:33N 51°43' E 004°37'7 7.2
2016-Feb-11 06:33N 51°42' E 004°26'5 4.8
2016-Feb-11 05:33N 51°39' E 004°19'14 0.9
2016-Feb-10 14:27N 51°33' E 003°59'5 4.8
2016-Feb-10 13:19N 51°27' E 004°01'6 8.2
2016-Feb-10 12:33N 51°22' E 003°55'5 4.6
2016-Feb-10 11:33N 51°20' E 003°49'0 0.3
2016-Feb-10 10:33N 51°19' E 003°49'0 0.0
2016-Feb-10 09:33N 51°19' E 003°49'0 0.0
2016-Feb-10 08:27N 51°19' E 003°49'1 1.1
2016-Feb-10 07:33N 51°18' E 003°50'7 7.5
2016-Feb-10 06:33N 51°11' E 003°48'6 6.5
2016-Feb-10 05:34N 51°06' E 003°42'2 1.6
2016-Feb-10 04:31N 51°05' E 003°39'0 0.0
2016-Feb-10 03:31N 51°05' E 003°39'0 0.0
2016-Feb-10 02:31N 51°05' E 003°39'0 0.0
2016-Feb-10 01:31N 51°05' E 003°39'0 0.0
2016-Feb-10 00:31N 51°05' E 003°39'0 0.0
2016-Feb-09 23:31N 51°05' E 003°39'0 0.0
2016-Feb-09 22:22N 51°05' E 003°39'0 0.0
2016-Feb-09 21:28N 51°05' E 003°39'0 0.0
2016-Feb-09 20:28N 51°05' E 003°39'0 0.0
2016-Feb-09 19:28N 51°05' E 003°39'0 0.0
2016-Feb-09 18:31N 51°05' E 003°39'0 0.0
2016-Feb-09 17:25N 51°05' E 003°39'0 0.0
2016-Feb-09 16:28N 51°05' E 003°39'0 0.0
2016-Feb-09 15:28N 51°05' E 003°39'0 0.1
2016-Feb-09 14:28N 51°05' E 003°39'0 0.0
2016-Feb-09 13:19N 51°05' E 003°39'0 0.0
2016-Feb-09 12:33N 51°05' E 003°39'5 4.6
2016-Feb-09 11:33N 51°03' E 003°33'8 7.6
2016-Feb-09 10:33N 50°56' E 003°27'5 5.5
2016-Feb-09 09:33N 50°53' E 003°20'6 6.3
2016-Feb-09 08:33N 50°48' E 003°13'  

Dump ship's entire track history